sensor_id;sensor_type;location;lat;lon;timestamp;temperature;humidity
44111;DHT22;29774;52.664;5.074;2022-08-21T00:01:25;25.60;55.50
44111;DHT22;29774;52.664;5.074;2022-08-21T00:03:51;25.50;54.50
44111;DHT22;29774;52.664;5.074;2022-08-21T00:06:16;25.40;55.90
44111;DHT22;29774;52.664;5.074;2022-08-21T00:08:42;25.50;55.70
44111;DHT22;29774;52.664;5.074;2022-08-21T00:11:08;25.50;55.60
44111;DHT22;29774;52.664;5.074;2022-08-21T00:13:34;25.40;55.70
44111;DHT22;29774;52.664;5.074;2022-08-21T00:16:01;25.40;55.80
44111;DHT22;29774;52.664;5.074;2022-08-21T00:18:27;25.20;56.10
44111;DHT22;29774;52.664;5.074;2022-08-21T00:20:52;25.30;56.10
44111;DHT22;29774;52.664;5.074;2022-08-21T00:23:18;25.40;55.80
44111;DHT22;29774;52.664;5.074;2022-08-21T00:25:45;25.40;55.80
44111;DHT22;29774;52.664;5.074;2022-08-21T00:28:11;25.50;55.60
44111;DHT22;29774;52.664;5.074;2022-08-21T00:30:38;25.40;55.90
44111;DHT22;29774;52.664;5.074;2022-08-21T00:33:04;25.50;55.50
44111;DHT22;29774;52.664;5.074;2022-08-21T00:35:34;25.50;55.60
44111;DHT22;29774;52.664;5.074;2022-08-21T00:38:01;25.30;55.90
44111;DHT22;29774;52.664;5.074;2022-08-21T00:40:32;25.40;55.70
44111;DHT22;29774;52.664;5.074;2022-08-21T00:42:58;25.40;56.00
44111;DHT22;29774;52.664;5.074;2022-08-21T00:45:25;25.30;55.90
44111;DHT22;29774;52.664;5.074;2022-08-21T00:47:51;25.40;55.80
44111;DHT22;29774;52.664;5.074;2022-08-21T00:50:18;25.30;56.00
44111;DHT22;29774;52.664;5.074;2022-08-21T00:52:44;25.30;55.10
44111;DHT22;29774;52.664;5.074;2022-08-21T00:55:11;25.30;56.10
44111;DHT22;29774;52.664;5.074;2022-08-21T00:57:48;25.40;55.70
44111;DHT22;29774;52.664;5.074;2022-08-21T01:00:19;25.40;55.80
44111;DHT22;29774;52.664;5.074;2022-08-21T01:02:45;25.40;55.70
44111;DHT22;29774;52.664;5.074;2022-08-21T01:05:11;25.40;55.70
44111;DHT22;29774;52.664;5.074;2022-08-21T01:07:37;25.40;55.70
44111;DHT22;29774;52.664;5.074;2022-08-21T01:10:05;25.40;55.60
44111;DHT22;29774;52.664;5.074;2022-08-21T01:12:31;25.40;55.70
44111;DHT22;29774;52.664;5.074;2022-08-21T01:14:57;25.40;55.70
44111;DHT22;29774;52.664;5.074;2022-08-21T01:17:24;25.40;55.60
44111;DHT22;29774;52.664;5.074;2022-08-21T01:19:50;25.40;55.70
44111;DHT22;29774;52.664;5.074;2022-08-21T01:22:16;25.40;55.60
44111;DHT22;29774;52.664;5.074;2022-08-21T01:24:41;25.10;56.40
44111;DHT22;29774;52.664;5.074;2022-08-21T01:27:07;25.30;56.00
44111;DHT22;29774;52.664;5.074;2022-08-21T01:29:40;25.40;55.70
44111;DHT22;29774;52.664;5.074;2022-08-21T01:32:10;25.40;55.80
44111;DHT22;29774;52.664;5.074;2022-08-21T01:34:38;25.40;55.60
44111;DHT22;29774;52.664;5.074;2022-08-21T01:37:04;25.40;55.60
44111;DHT22;29774;52.664;5.074;2022-08-21T01:39:30;25.40;55.60
44111;DHT22;29774;52.664;5.074;2022-08-21T01:41:56;25.40;55.70
44111;DHT22;29774;52.664;5.074;2022-08-21T01:44:22;25.30;55.70
44111;DHT22;29774;52.664;5.074;2022-08-21T01:46:48;25.30;55.70
44111;DHT22;29774;52.664;5.074;2022-08-21T01:49:14;25.00;56.70
44111;DHT22;29774;52.664;5.074;2022-08-21T01:51:41;25.30;56.10
44111;DHT22;29774;52.664;5.074;2022-08-21T01:54:07;25.30;55.90
44111;DHT22;29774;52.664;5.074;2022-08-21T01:56:42;25.30;56.00
44111;DHT22;29774;52.664;5.074;2022-08-21T01:59:08;25.30;54.90
44111;DHT22;29774;52.664;5.074;2022-08-21T02:01:34;25.30;55.70
44111;DHT22;29774;52.664;5.074;2022-08-21T02:04:00;25.30;55.80
44111;DHT22;29774;52.664;5.074;2022-08-21T02:06:26;25.30;55.90
44111;DHT22;29774;52.664;5.074;2022-08-21T02:08:52;25.30;55.80
44111;DHT22;29774;52.664;5.074;2022-08-21T02:11:19;25.30;55.70
44111;DHT22;29774;52.664;5.074;2022-08-21T02:13:44;25.30;55.90
44111;DHT22;29774;52.664;5.074;2022-08-21T02:16:10;25.30;56.00
44111;DHT22;29774;52.664;5.074;2022-08-21T02:18:36;25.30;55.90
44111;DHT22;29774;52.664;5.074;2022-08-21T02:21:03;25.30;55.90
44111;DHT22;29774;52.664;5.074;2022-08-21T02:23:29;25.30;55.80
44111;DHT22;29774;52.664;5.074;2022-08-21T02:25:57;25.30;55.80
44111;DHT22;29774;52.664;5.074;2022-08-21T02:28:23;25.30;55.80
44111;DHT22;29774;52.664;5.074;2022-08-21T02:30:49;25.40;55.90
44111;DHT22;29774;52.664;5.074;2022-08-21T02:33:16;25.40;55.80
44111;DHT22;29774;52.664;5.074;2022-08-21T02:35:43;25.20;56.30
44111;DHT22;29774;52.664;5.074;2022-08-21T02:38:13;25.30;56.00
44111;DHT22;29774;52.664;5.074;2022-08-21T02:40:42;25.30;55.90
44111;DHT22;29774;52.664;5.074;2022-08-21T02:43:08;25.30;56.20
44111;DHT22;29774;52.664;5.074;2022-08-21T02:45:34;25.30;56.10
44111;DHT22;29774;52.664;5.074;2022-08-21T02:48:03;25.30;56.00
44111;DHT22;29774;52.664;5.074;2022-08-21T02:50:33;25.30;55.90
44111;DHT22;29774;52.664;5.074;2022-08-21T02:52:59;25.30;55.90
44111;DHT22;29774;52.664;5.074;2022-08-21T02:55:26;25.20;56.00
44111;DHT22;29774;52.664;5.074;2022-08-21T02:57:53;25.30;55.90
44111;DHT22;29774;52.664;5.074;2022-08-21T03:00:21;25.30;55.80
44111;DHT22;29774;52.664;5.074;2022-08-21T03:02:47;25.30;55.70
44111;DHT22;29774;52.664;5.074;2022-08-21T03:05:14;25.30;55.80
44111;DHT22;29774;52.664;5.074;2022-08-21T03:07:41;25.30;55.90
44111;DHT22;29774;52.664;5.074;2022-08-21T03:10:07;25.30;56.00
44111;DHT22;29774;52.664;5.074;2022-08-21T03:12:33;25.10;56.50
44111;DHT22;29774;52.664;5.074;2022-08-21T03:15:01;25.10;56.30
44111;DHT22;29774;52.664;5.074;2022-08-21T03:17:27;25.20;56.20
44111;DHT22;29774;52.664;5.074;2022-08-21T03:19:53;25.20;56.10
44111;DHT22;29774;52.664;5.074;2022-08-21T03:22:18;25.20;56.20
44111;DHT22;29774;52.664;5.074;2022-08-21T03:24:44;25.10;56.10
44111;DHT22;29774;52.664;5.074;2022-08-21T03:27:10;25.20;56.20
44111;DHT22;29774;52.664;5.074;2022-08-21T03:29:37;25.20;56.20
44111;DHT22;29774;52.664;5.074;2022-08-21T03:32:03;25.30;56.10
44111;DHT22;29774;52.664;5.074;2022-08-21T03:34:29;25.30;56.20
44111;DHT22;29774;52.664;5.074;2022-08-21T03:36:55;25.30;56.10
44111;DHT22;29774;52.664;5.074;2022-08-21T03:39:20;25.20;55.40
44111;DHT22;29774;52.664;5.074;2022-08-21T03:41:46;25.20;56.20
44111;DHT22;29774;52.664;5.074;2022-08-21T03:44:13;25.30;56.10
44111;DHT22;29774;52.664;5.074;2022-08-21T03:46:38;25.20;56.10
44111;DHT22;29774;52.664;5.074;2022-08-21T03:49:05;25.30;56.10
44111;DHT22;29774;52.664;5.074;2022-08-21T03:51:31;25.20;56.30
44111;DHT22;29774;52.664;5.074;2022-08-21T03:53:59;25.20;56.10
44111;DHT22;29774;52.664;5.074;2022-08-21T03:56:24;25.20;56.20
44111;DHT22;29774;52.664;5.074;2022-08-21T03:58:50;25.20;56.30
44111;DHT22;29774;52.664;5.074;2022-08-21T04:01:15;25.30;56.10
44111;DHT22;29774;52.664;5.074;2022-08-21T04:03:41;25.30;56.10
44111;DHT22;29774;52.664;5.074;2022-08-21T04:06:07;25.20;56.50
44111;DHT22;29774;52.664;5.074;2022-08-21T04:08:32;25.20;56.30
44111;DHT22;29774;52.664;5.074;2022-08-21T04:10:59;25.20;56.30
44111;DHT22;29774;52.664;5.074;2022-08-21T04:13:25;25.20;56.30
44111;DHT22;29774;52.664;5.074;2022-08-21T04:15:53;25.20;56.30
44111;DHT22;29774;52.664;5.074;2022-08-21T04:18:19;25.20;56.30
44111;DHT22;29774;52.664;5.074;2022-08-21T04:20:47;25.20;56.30
44111;DHT22;29774;52.664;5.074;2022-08-21T04:23:13;25.20;56.30
44111;DHT22;29774;52.664;5.074;2022-08-21T04:25:39;25.10;56.60
44111;DHT22;29774;52.664;5.074;2022-08-21T04:28:04;25.20;56.40
44111;DHT22;29774;52.664;5.074;2022-08-21T04:30:30;25.10;56.00
44111;DHT22;29774;52.664;5.074;2022-08-21T04:32:57;25.10;56.60
44111;DHT22;29774;52.664;5.074;2022-08-21T04:35:25;25.20;56.60
44111;DHT22;29774;52.664;5.074;2022-08-21T04:37:51;25.20;56.60
44111;DHT22;29774;52.664;5.074;2022-08-21T04:40:18;25.20;56.60
44111;DHT22;29774;52.664;5.074;2022-08-21T04:42:50;25.20;56.60
44111;DHT22;29774;52.664;5.074;2022-08-21T04:45:28;25.20;56.80
44111;DHT22;29774;52.664;5.074;2022-08-21T04:47:56;25.20;56.90
44111;DHT22;29774;52.664;5.074;2022-08-21T04:50:27;25.10;57.00
44111;DHT22;29774;52.664;5.074;2022-08-21T04:52:54;25.20;57.10
44111;DHT22;29774;52.664;5.074;2022-08-21T04:55:20;25.10;56.80
44111;DHT22;29774;52.664;5.074;2022-08-21T04:57:46;25.10;56.80
44111;DHT22;29774;52.664;5.074;2022-08-21T05:00:13;25.20;57.00
44111;DHT22;29774;52.664;5.074;2022-08-21T05:02:40;25.20;56.60
44111;DHT22;29774;52.664;5.074;2022-08-21T05:05:06;25.30;56.80
44111;DHT22;29774;52.664;5.074;2022-08-21T05:07:32;25.20;56.80
44111;DHT22;29774;52.664;5.074;2022-08-21T05:09:59;25.20;56.90
44111;DHT22;29774;52.664;5.074;2022-08-21T05:12:25;25.10;57.10
44111;DHT22;29774;52.664;5.074;2022-08-21T05:14:50;25.10;57.10
44111;DHT22;29774;52.664;5.074;2022-08-21T05:17:17;25.20;57.00
44111;DHT22;29774;52.664;5.074;2022-08-21T05:19:42;25.10;57.00
44111;DHT22;29774;52.664;5.074;2022-08-21T05:22:08;25.10;57.00
44111;DHT22;29774;52.664;5.074;2022-08-21T05:24:34;25.00;57.10
44111;DHT22;29774;52.664;5.074;2022-08-21T05:27:00;25.00;57.80
44111;DHT22;29774;52.664;5.074;2022-08-21T05:29:25;24.90;58.00
44111;DHT22;29774;52.664;5.074;2022-08-21T05:31:52;24.90;58.00
44111;DHT22;29774;52.664;5.074;2022-08-21T05:34:20;24.90;57.70
44111;DHT22;29774;52.664;5.074;2022-08-21T05:36:46;24.90;58.50
44111;DHT22;29774;52.664;5.074;2022-08-21T05:39:12;24.80;58.80
44111;DHT22;29774;52.664;5.074;2022-08-21T05:41:37;24.80;58.70
44111;DHT22;29774;52.664;5.074;2022-08-21T05:44:03;24.70;58.70
44111;DHT22;29774;52.664;5.074;2022-08-21T05:46:30;24.60;59.20
44111;DHT22;29774;52.664;5.074;2022-08-21T05:48:55;24.60;58.70
44111;DHT22;29774;52.664;5.074;2022-08-21T05:51:21;24.60;58.40
44111;DHT22;29774;52.664;5.074;2022-08-21T05:53:47;24.60;58.30
44111;DHT22;29774;52.664;5.074;2022-08-21T05:56:13;24.50;58.40
44111;DHT22;29774;52.664;5.074;2022-08-21T05:58:39;24.50;58.30
44111;DHT22;29774;52.664;5.074;2022-08-21T06:01:05;24.50;59.00
44111;DHT22;29774;52.664;5.074;2022-08-21T06:03:34;24.50;58.90
44111;DHT22;29774;52.664;5.074;2022-08-21T06:06:00;24.50;58.90
44111;DHT22;29774;52.664;5.074;2022-08-21T06:08:27;24.50;58.70
44111;DHT22;29774;52.664;5.074;2022-08-21T06:10:53;24.50;59.20
44111;DHT22;29774;52.664;5.074;2022-08-21T06:13:21;24.50;58.90
44111;DHT22;29774;52.664;5.074;2022-08-21T06:15:47;24.50;59.40
44111;DHT22;29774;52.664;5.074;2022-08-21T06:18:13;24.40;59.30
44111;DHT22;29774;52.664;5.074;2022-08-21T06:20:39;24.40;59.40
44111;DHT22;29774;52.664;5.074;2022-08-21T06:23:05;24.30;59.10
44111;DHT22;29774;52.664;5.074;2022-08-21T06:25:31;24.40;59.10
44111;DHT22;29774;52.664;5.074;2022-08-21T06:28:05;24.40;58.80
44111;DHT22;29774;52.664;5.074;2022-08-21T06:30:31;24.30;59.20
44111;DHT22;29774;52.664;5.074;2022-08-21T06:32:57;24.30;59.60
44111;DHT22;29774;52.664;5.074;2022-08-21T06:35:22;24.40;59.60
44111;DHT22;29774;52.664;5.074;2022-08-21T06:37:50;24.40;59.70
44111;DHT22;29774;52.664;5.074;2022-08-21T06:40:15;24.30;59.40
44111;DHT22;29774;52.664;5.074;2022-08-21T06:42:41;24.40;60.50
44111;DHT22;29774;52.664;5.074;2022-08-21T06:45:07;24.30;60.00
44111;DHT22;29774;52.664;5.074;2022-08-21T06:47:32;24.30;60.50
44111;DHT22;29774;52.664;5.074;2022-08-21T06:49:58;24.30;59.60
44111;DHT22;29774;52.664;5.074;2022-08-21T06:52:23;24.30;59.50
44111;DHT22;29774;52.664;5.074;2022-08-21T06:54:49;24.30;59.90
44111;DHT22;29774;52.664;5.074;2022-08-21T06:57:15;24.30;59.80
44111;DHT22;29774;52.664;5.074;2022-08-21T06:59:41;24.30;59.30
44111;DHT22;29774;52.664;5.074;2022-08-21T07:02:06;24.20;59.70
44111;DHT22;29774;52.664;5.074;2022-08-21T07:04:32;24.20;59.70
44111;DHT22;29774;52.664;5.074;2022-08-21T07:06:58;24.30;59.80
44111;DHT22;29774;52.664;5.074;2022-08-21T07:09:24;24.30;60.30
44111;DHT22;29774;52.664;5.074;2022-08-21T07:11:52;24.30;59.60
44111;DHT22;29774;52.664;5.074;2022-08-21T07:14:18;24.20;60.20
44111;DHT22;29774;52.664;5.074;2022-08-21T07:16:44;24.20;59.60
44111;DHT22;29774;52.664;5.074;2022-08-21T07:19:09;24.20;60.00
44111;DHT22;29774;52.664;5.074;2022-08-21T07:21:35;24.20;59.70
44111;DHT22;29774;52.664;5.074;2022-08-21T07:24:00;24.20;59.80
44111;DHT22;29774;52.664;5.074;2022-08-21T07:26:26;24.20;59.70
44111;DHT22;29774;52.664;5.074;2022-08-21T07:28:52;24.20;59.80
44111;DHT22;29774;52.664;5.074;2022-08-21T07:31:19;24.30;59.40
44111;DHT22;29774;52.664;5.074;2022-08-21T07:33:45;24.30;59.60
44111;DHT22;29774;52.664;5.074;2022-08-21T07:36:11;24.30;59.90
44111;DHT22;29774;52.664;5.074;2022-08-21T07:38:37;24.40;59.80
44111;DHT22;29774;52.664;5.074;2022-08-21T07:41:10;24.40;60.60
44111;DHT22;29774;52.664;5.074;2022-08-21T07:43:38;24.40;59.40
44111;DHT22;29774;52.664;5.074;2022-08-21T07:46:03;24.50;59.80
44111;DHT22;29774;52.664;5.074;2022-08-21T07:48:29;24.50;59.50
44111;DHT22;29774;52.664;5.074;2022-08-21T07:50:54;24.50;59.10
44111;DHT22;29774;52.664;5.074;2022-08-21T07:53:20;24.60;59.30
44111;DHT22;29774;52.664;5.074;2022-08-21T07:55:46;24.60;58.80
44111;DHT22;29774;52.664;5.074;2022-08-21T07:58:12;24.70;59.00
44111;DHT22;29774;52.664;5.074;2022-08-21T08:00:38;24.60;59.60
44111;DHT22;29774;52.664;5.074;2022-08-21T08:03:04;24.60;59.00
44111;DHT22;29774;52.664;5.074;2022-08-21T08:05:31;24.70;58.80
44111;DHT22;29774;52.664;5.074;2022-08-21T08:07:57;24.70;58.90
44111;DHT22;29774;52.664;5.074;2022-08-21T08:10:24;24.80;58.50
44111;DHT22;29774;52.664;5.074;2022-08-21T08:12:50;24.70;58.90
44111;DHT22;29774;52.664;5.074;2022-08-21T08:15:20;24.70;58.60
44111;DHT22;29774;52.664;5.074;2022-08-21T08:17:46;24.80;58.60
44111;DHT22;29774;52.664;5.074;2022-08-21T08:20:14;24.80;58.80
44111;DHT22;29774;52.664;5.074;2022-08-21T08:22:41;24.80;58.50
44111;DHT22;29774;52.664;5.074;2022-08-21T08:25:08;24.80;58.60
44111;DHT22;29774;52.664;5.074;2022-08-21T08:27:34;24.80;58.40
44111;DHT22;29774;52.664;5.074;2022-08-21T08:30:00;24.80;58.50
44111;DHT22;29774;52.664;5.074;2022-08-21T08:32:25;24.90;58.60
44111;DHT22;29774;52.664;5.074;2022-08-21T08:34:51;25.00;58.30
44111;DHT22;29774;52.664;5.074;2022-08-21T08:37:18;24.90;58.30
44111;DHT22;29774;52.664;5.074;2022-08-21T08:39:45;24.90;58.30
44111;DHT22;29774;52.664;5.074;2022-08-21T08:42:18;25.00;58.30
44111;DHT22;29774;52.664;5.074;2022-08-21T08:44:46;25.00;58.20
44111;DHT22;29774;52.664;5.074;2022-08-21T08:47:16;25.00;58.10
44111;DHT22;29774;52.664;5.074;2022-08-21T08:50:03;25.00;58.20
44111;DHT22;29774;52.664;5.074;2022-08-21T08:55:05;25.00;58.10
44111;DHT22;29774;52.664;5.074;2022-08-21T08:57:32;25.10;58.00
44111;DHT22;29774;52.664;5.074;2022-08-21T09:00:00;25.00;58.20
44111;DHT22;29774;52.664;5.074;2022-08-21T09:02:28;25.00;58.30
44111;DHT22;29774;52.664;5.074;2022-08-21T09:04:55;25.00;58.10
44111;DHT22;29774;52.664;5.074;2022-08-21T09:10:26;25.10;57.70
44111;DHT22;29774;52.664;5.074;2022-08-21T09:24:00;25.10;58.10
44111;DHT22;29774;52.664;5.074;2022-08-21T09:29:23;25.20;57.80
44111;DHT22;29774;52.664;5.074;2022-08-21T09:31:51;25.20;57.80
44111;DHT22;29774;52.664;5.074;2022-08-21T09:34:29;25.20;58.20
44111;DHT22;29774;52.664;5.074;2022-08-21T09:36:56;25.20;57.90
44111;DHT22;29774;52.664;5.074;2022-08-21T09:39:36;25.20;57.60
44111;DHT22;29774;52.664;5.074;2022-08-21T09:42:07;25.20;57.90
44111;DHT22;29774;52.664;5.074;2022-08-21T09:44:36;25.20;58.00
44111;DHT22;29774;52.664;5.074;2022-08-21T09:47:09;25.20;58.00
44111;DHT22;29774;52.664;5.074;2022-08-21T09:49:39;25.20;58.30
44111;DHT22;29774;52.664;5.074;2022-08-21T09:52:20;25.40;57.40
44111;DHT22;29774;52.664;5.074;2022-08-21T09:54:51;25.20;57.70
44111;DHT22;29774;52.664;5.074;2022-08-21T09:57:26;25.20;57.80
44111;DHT22;29774;52.664;5.074;2022-08-21T10:02:45;25.30;57.50
44111;DHT22;29774;52.664;5.074;2022-08-21T10:05:25;25.30;56.10
44111;DHT22;29774;52.664;5.074;2022-08-21T10:07:52;25.50;56.80
44111;DHT22;29774;52.664;5.074;2022-08-21T10:13:13;25.30;57.50
44111;DHT22;29774;52.664;5.074;2022-08-21T10:16:27;25.30;57.80
44111;DHT22;29774;52.664;5.074;2022-08-21T10:19:16;25.30;57.60
44111;DHT22;29774;52.664;5.074;2022-08-21T10:24:48;25.40;57.30
44111;DHT22;29774;52.664;5.074;2022-08-21T10:30:12;25.50;55.70
44111;DHT22;29774;52.664;5.074;2022-08-21T10:32:43;25.40;57.20
44111;DHT22;29774;52.664;5.074;2022-08-21T10:35:18;25.40;57.30
44111;DHT22;29774;52.664;5.074;2022-08-21T10:47:04;25.50;57.00
44111;DHT22;29774;52.664;5.074;2022-08-21T10:54:52;25.50;56.90
44111;DHT22;29774;52.664;5.074;2022-08-21T10:57:29;25.50;57.00
44111;DHT22;29774;52.664;5.074;2022-08-21T11:00:03;25.70;56.50
44111;DHT22;29774;52.664;5.074;2022-08-21T11:02:37;25.50;56.80
44111;DHT22;29774;52.664;5.074;2022-08-21T11:05:19;25.70;56.10
44111;DHT22;29774;52.664;5.074;2022-08-21T11:07:55;25.80;56.10
44111;DHT22;29774;52.664;5.074;2022-08-21T11:10:27;25.70;56.70
44111;DHT22;29774;52.664;5.074;2022-08-21T11:13:01;25.60;56.70
44111;DHT22;29774;52.664;5.074;2022-08-21T11:15:36;25.60;56.90
44111;DHT22;29774;52.664;5.074;2022-08-21T11:20:59;25.80;55.80
44111;DHT22;29774;52.664;5.074;2022-08-21T11:23:36;25.70;54.80
44111;DHT22;29774;52.664;5.074;2022-08-21T11:26:11;25.70;56.50
44111;DHT22;29774;52.664;5.074;2022-08-21T11:29:08;25.70;56.40
44111;DHT22;29774;52.664;5.074;2022-08-21T11:32:02;25.80;56.50
44111;DHT22;29774;52.664;5.074;2022-08-21T11:34:51;26.00;54.70
44111;DHT22;29774;52.664;5.074;2022-08-21T11:40:03;25.80;56.20
44111;DHT22;29774;52.664;5.074;2022-08-21T11:50:55;25.70;56.80
44111;DHT22;29774;52.664;5.074;2022-08-21T11:53:35;25.90;54.90
44111;DHT22;29774;52.664;5.074;2022-08-21T11:56:15;25.90;55.30
44111;DHT22;29774;52.664;5.074;2022-08-21T11:59:05;26.20;54.90
44111;DHT22;29774;52.664;5.074;2022-08-21T12:01:36;26.40;54.50
44111;DHT22;29774;52.664;5.074;2022-08-21T12:04:17;26.00;55.70
44111;DHT22;29774;52.664;5.074;2022-08-21T12:06:44;25.90;56.00
44111;DHT22;29774;52.664;5.074;2022-08-21T12:17:51;25.90;56.10
44111;DHT22;29774;52.664;5.074;2022-08-21T12:20:32;25.80;56.30
44111;DHT22;29774;52.664;5.074;2022-08-21T12:23:29;25.90;56.20
44111;DHT22;29774;52.664;5.074;2022-08-21T12:26:03;25.80;56.40
44111;DHT22;29774;52.664;5.074;2022-08-21T12:28:30;26.00;55.60
44111;DHT22;29774;52.664;5.074;2022-08-21T12:30:57;25.90;51.90
44111;DHT22;29774;52.664;5.074;2022-08-21T12:33:32;25.90;53.80
44111;DHT22;29774;52.664;5.074;2022-08-21T12:36:21;25.90;54.40
44111;DHT22;29774;52.664;5.074;2022-08-21T12:39:03;26.00;56.10
44111;DHT22;29774;52.664;5.074;2022-08-21T12:41:46;26.00;56.00
44111;DHT22;29774;52.664;5.074;2022-08-21T12:44:18;25.90;56.20
44111;DHT22;29774;52.664;5.074;2022-08-21T12:47:06;25.90;56.30
44111;DHT22;29774;52.664;5.074;2022-08-21T12:50:26;25.90;54.10
44111;DHT22;29774;52.664;5.074;2022-08-21T12:52:40;26.00;56.10
44111;DHT22;29774;52.664;5.074;2022-08-21T12:55:11;26.00;55.90
44111;DHT22;29774;52.664;5.074;2022-08-21T12:57:39;25.90;56.30
44111;DHT22;29774;52.664;5.074;2022-08-21T13:00:07;26.00;56.30
44111;DHT22;29774;52.664;5.074;2022-08-21T13:02:42;26.00;56.40
44111;DHT22;29774;52.664;5.074;2022-08-21T13:05:14;26.00;56.30
44111;DHT22;29774;52.664;5.074;2022-08-21T13:07:45;26.00;56.10
44111;DHT22;29774;52.664;5.074;2022-08-21T13:10:26;26.00;55.90
44111;DHT22;29774;52.664;5.074;2022-08-21T13:13:04;26.00;56.10
44111;DHT22;29774;52.664;5.074;2022-08-21T13:15:33;26.00;56.30
44111;DHT22;29774;52.664;5.074;2022-08-21T13:18:02;26.00;56.10
44111;DHT22;29774;52.664;5.074;2022-08-21T13:20:31;26.10;56.00
44111;DHT22;29774;52.664;5.074;2022-08-21T13:22:57;26.10;55.60
44111;DHT22;29774;52.664;5.074;2022-08-21T13:25:27;26.10;55.60
44111;DHT22;29774;52.664;5.074;2022-08-21T13:28:11;26.20;55.60
44111;DHT22;29774;52.664;5.074;2022-08-21T13:30:52;26.00;55.80
44111;DHT22;29774;52.664;5.074;2022-08-21T13:33:20;26.00;55.70
44111;DHT22;29774;52.664;5.074;2022-08-21T13:35:58;26.00;55.70
44111;DHT22;29774;52.664;5.074;2022-08-21T13:38:32;26.10;55.70
44111;DHT22;29774;52.664;5.074;2022-08-21T13:41:08;26.10;54.20
44111;DHT22;29774;52.664;5.074;2022-08-21T13:43:37;26.20;55.60
44111;DHT22;29774;52.664;5.074;2022-08-21T13:46:09;26.10;55.20
44111;DHT22;29774;52.664;5.074;2022-08-21T13:48:36;26.10;55.70
44111;DHT22;29774;52.664;5.074;2022-08-21T13:51:02;26.00;55.80
44111;DHT22;29774;52.664;5.074;2022-08-21T13:53:43;26.00;55.80
44111;DHT22;29774;52.664;5.074;2022-08-21T13:56:28;26.00;55.80
44111;DHT22;29774;52.664;5.074;2022-08-21T13:58:56;26.10;55.80
44111;DHT22;29774;52.664;5.074;2022-08-21T14:01:26;26.10;55.80
44111;DHT22;29774;52.664;5.074;2022-08-21T14:03:56;26.10;55.70
44111;DHT22;29774;52.664;5.074;2022-08-21T14:06:26;26.10;55.70
44111;DHT22;29774;52.664;5.074;2022-08-21T14:09:00;26.10;55.70
44111;DHT22;29774;52.664;5.074;2022-08-21T14:11:27;26.10;55.60
44111;DHT22;29774;52.664;5.074;2022-08-21T14:14:01;26.10;55.50
44111;DHT22;29774;52.664;5.074;2022-08-21T14:16:40;26.10;55.50
44111;DHT22;29774;52.664;5.074;2022-08-21T14:19:37;26.00;55.70
44111;DHT22;29774;52.664;5.074;2022-08-21T14:30:31;26.10;55.30
44111;DHT22;29774;52.664;5.074;2022-08-21T14:32:57;26.10;55.80
44111;DHT22;29774;52.664;5.074;2022-08-21T14:35:23;26.10;55.50
44111;DHT22;29774;52.664;5.074;2022-08-21T14:37:49;26.00;55.80
44111;DHT22;29774;52.664;5.074;2022-08-21T14:40:19;26.00;55.60
44111;DHT22;29774;52.664;5.074;2022-08-21T14:42:46;26.10;55.70
44111;DHT22;29774;52.664;5.074;2022-08-21T14:47:48;26.10;55.40
44111;DHT22;29774;52.664;5.074;2022-08-21T14:50:14;26.10;55.50
44111;DHT22;29774;52.664;5.074;2022-08-21T14:52:40;26.10;55.50
44111;DHT22;29774;52.664;5.074;2022-08-21T14:55:07;26.10;54.70
44111;DHT22;29774;52.664;5.074;2022-08-21T14:57:36;26.00;55.70
44111;DHT22;29774;52.664;5.074;2022-08-21T15:00:03;26.10;55.50
44111;DHT22;29774;52.664;5.074;2022-08-21T15:02:29;26.00;55.60
44111;DHT22;29774;52.664;5.074;2022-08-21T15:04:55;26.00;55.50
44111;DHT22;29774;52.664;5.074;2022-08-21T15:07:21;26.00;55.40
44111;DHT22;29774;52.664;5.074;2022-08-21T15:09:46;26.00;55.30
44111;DHT22;29774;52.664;5.074;2022-08-21T15:12:13;26.10;55.60
44111;DHT22;29774;52.664;5.074;2022-08-21T15:14:40;26.00;54.00
44111;DHT22;29774;52.664;5.074;2022-08-21T15:17:07;26.10;55.70
44111;DHT22;29774;52.664;5.074;2022-08-21T15:19:33;26.10;55.60
44111;DHT22;29774;52.664;5.074;2022-08-21T15:21:59;26.00;54.60
44111;DHT22;29774;52.664;5.074;2022-08-21T15:24:25;26.10;55.60
44111;DHT22;29774;52.664;5.074;2022-08-21T15:26:51;26.00;55.70
44111;DHT22;29774;52.664;5.074;2022-08-21T15:29:17;26.10;52.00
44111;DHT22;29774;52.664;5.074;2022-08-21T15:31:55;26.10;55.80
44111;DHT22;29774;52.664;5.074;2022-08-21T15:34:21;26.00;55.80
44111;DHT22;29774;52.664;5.074;2022-08-21T15:36:47;26.10;55.80
44111;DHT22;29774;52.664;5.074;2022-08-21T15:39:13;26.10;52.10
44111;DHT22;29774;52.664;5.074;2022-08-21T15:41:39;26.10;55.90
44111;DHT22;29774;52.664;5.074;2022-08-21T15:44:04;26.10;55.80
44111;DHT22;29774;52.664;5.074;2022-08-21T15:46:31;26.10;55.70
44111;DHT22;29774;52.664;5.074;2022-08-21T15:48:57;26.10;54.80
44111;DHT22;29774;52.664;5.074;2022-08-21T15:51:22;26.10;55.90
44111;DHT22;29774;52.664;5.074;2022-08-21T15:53:48;26.00;56.10
44111;DHT22;29774;52.664;5.074;2022-08-21T15:56:26;26.10;55.90
44111;DHT22;29774;52.664;5.074;2022-08-21T15:59:02;26.00;56.10
44111;DHT22;29774;52.664;5.074;2022-08-21T16:01:28;26.10;56.00
44111;DHT22;29774;52.664;5.074;2022-08-21T16:03:55;26.10;56.00
44111;DHT22;29774;52.664;5.074;2022-08-21T16:06:21;26.10;55.90
44111;DHT22;29774;52.664;5.074;2022-08-21T16:08:46;26.10;55.80
44111;DHT22;29774;52.664;5.074;2022-08-21T16:11:13;26.10;55.70
44111;DHT22;29774;52.664;5.074;2022-08-21T16:13:42;26.10;56.10
44111;DHT22;29774;52.664;5.074;2022-08-21T16:16:10;26.10;55.90
44111;DHT22;29774;52.664;5.074;2022-08-21T16:18:38;26.10;55.90
44111;DHT22;29774;52.664;5.074;2022-08-21T16:21:04;26.10;55.70
44111;DHT22;29774;52.664;5.074;2022-08-21T16:23:30;26.00;55.90
44111;DHT22;29774;52.664;5.074;2022-08-21T16:25:58;26.00;56.20
44111;DHT22;29774;52.664;5.074;2022-08-21T16:28:24;25.90;56.40
44111;DHT22;29774;52.664;5.074;2022-08-21T16:30:50;26.00;56.00
44111;DHT22;29774;52.664;5.074;2022-08-21T16:33:37;26.00;56.10
44111;DHT22;29774;52.664;5.074;2022-08-21T16:36:05;26.10;55.90
44111;DHT22;29774;52.664;5.074;2022-08-21T16:38:31;26.10;56.00
44111;DHT22;29774;52.664;5.074;2022-08-21T16:40:58;26.00;55.90
44111;DHT22;29774;52.664;5.074;2022-08-21T16:43:27;26.00;56.20
44111;DHT22;29774;52.664;5.074;2022-08-21T16:45:54;26.00;55.20
44111;DHT22;29774;52.664;5.074;2022-08-21T16:48:21;26.00;56.10
44111;DHT22;29774;52.664;5.074;2022-08-21T16:50:47;26.00;56.00
44111;DHT22;29774;52.664;5.074;2022-08-21T16:53:13;26.00;56.00
44111;DHT22;29774;52.664;5.074;2022-08-21T16:55:39;26.00;56.10
44111;DHT22;29774;52.664;5.074;2022-08-21T16:58:10;26.00;56.10
44111;DHT22;29774;52.664;5.074;2022-08-21T17:00:37;26.00;56.10